Time;durP1;ratioP1;P1;durP2;ratioP2;P2;SDS_P1;SDS_P2;PMS_P1;PMS_P2;Temp;Humidity;BMP_temperature;BMP_pressure;BME280_temperature;BME280_humidity;BME280_pressure;Samples;Min_cycle;Max_cycle;Signal;HPM_P1;HPM_P2
2022/07/17 00:01:27;;;;;;;5.72;2.33;;;;;;;22.40;62.27;95240.47;5036409;28;20229;-77
2022/07/17 00:03:52;;;;;;;3.65;2.20;;;;;;;22.42;62.18;95241.78;5032307;28;20171;-77
2022/07/17 00:06:18;;;;;;;3.00;2.38;;;;;;;22.47;62.42;95255.19;5032588;28;20286;-77
2022/07/17 00:08:43;;;;;;;3.85;1.95;;;;;;;22.46;62.69;95260.84;5045979;28;20205;-77
2022/07/17 00:11:09;;;;;;;2.55;1.95;;;;;;;22.26;62.51;95228.72;5045539;28;20558;-77
2022/07/17 00:13:34;;;;;;;4.63;2.40;;;;;;;22.31;62.63;95244.81;5032511;28;20708;-77
2022/07/17 00:16:00;;;;;;;4.57;2.85;;;;;;;22.41;62.85;95260.84;5032522;28;20937;-77
2022/07/17 00:18:25;;;;;;;3.33;2.53;;;;;;;22.43;62.77;95264.06;5045616;28;20175;-77
2022/07/17 00:20:51;;;;;;;5.28;2.63;;;;;;;22.40;62.97;95262.72;5045389;28;20659;-77
2022/07/17 00:23:17;;;;;;;8.23;2.10;;;;;;;22.40;63.05;95261.94;5050156;28;20194;-77
2022/07/17 00:25:42;;;;;;;4.57;2.40;;;;;;;22.27;63.29;95244.53;5051865;28;20179;-77
2022/07/17 00:28:08;;;;;;;6.10;2.72;;;;;;;22.33;63.17;95259.53;5038415;28;20249;-77
2022/07/17 00:30:33;;;;;;;4.57;2.92;;;;;;;22.34;63.57;95263.81;5047937;28;20171;-77
2022/07/17 00:32:59;;;;;;;4.20;2.35;;;;;;;22.27;62.76;95257.94;5033759;28;20207;-77
2022/07/17 00:35:24;;;;;;;2.88;2.20;;;;;;;22.29;63.30;95263.84;5043371;28;20178;-77
2022/07/17 00:37:50;;;;;;;7.35;2.80;;;;;;;22.22;63.27;95265.22;5046915;28;20250;-77
2022/07/17 00:40:21;;;;;;;2.85;2.35;;;;;;;22.19;63.77;95262.00;5047780;28;20182;-77
2022/07/17 00:42:47;;;;;;;3.85;2.50;;;;;;;22.22;63.62;95271.41;5051617;28;20183;-76
2022/07/17 00:45:13;;;;;;;4.50;2.38;;;;;;;22.21;64.21;95269.78;5051701;28;20539;-76
2022/07/17 00:47:54;;;;;;;3.15;2.53;;;;;;;22.19;64.66;95269.25;5045479;28;20293;-76
2022/07/17 00:50:21;;;;;;;8.10;3.47;;;;;;;22.16;64.53;95265.22;5049417;28;20187;-77
2022/07/17 00:52:47;;;;;;;5.07;2.72;;;;;;;22.13;64.78;95276.53;5035728;28;20661;-77
2022/07/17 00:55:13;;;;;;;5.78;2.58;;;;;;;22.10;65.08;95271.69;5051663;28;20286;-77
2022/07/17 00:57:41;;;;;;;6.63;3.03;;;;;;;22.10;64.95;95287.78;5034285;28;20202;-76
2022/07/17 01:00:10;;;;;;;5.22;2.53;;;;;;;22.04;64.83;95269.31;5031802;28;20804;-77
2022/07/17 01:02:37;;;;;;;3.78;2.50;;;;;;;22.05;64.89;95284.31;5014023;28;20659;-76
2022/07/17 01:05:03;;;;;;;4.03;2.80;;;;;;;22.01;64.91;95267.97;5029714;28;20171;-77
2022/07/17 01:07:29;;;;;;;9.63;4.63;;;;;;;21.96;63.62;95267.16;5033324;28;20583;-77
2022/07/17 01:09:55;;;;;;;9.25;5.72;;;;;;;22.08;64.01;95284.56;5039353;28;20262;-77
2022/07/17 01:12:22;;;;;;;9.75;5.03;;;;;;;22.11;64.02;95283.22;5036806;28;20581;-77
2022/07/17 01:14:48;;;;;;;3.13;2.40;;;;;;;22.08;63.81;95278.38;5043457;28;20202;-77
2022/07/17 01:17:15;;;;;;;5.30;3.90;;;;;;;22.05;64.26;95277.06;5040183;28;20180;-77
2022/07/17 01:19:40;;;;;;;2.83;2.55;;;;;;;22.03;64.27;95279.22;5031328;28;20607;-77
2022/07/17 01:22:06;;;;;;;4.35;2.72;;;;;;;22.02;64.04;95280.28;5037188;28;20163;-77
2022/07/17 01:24:31;;;;;;;6.10;2.92;;;;;;;22.02;63.96;95277.63;5051082;28;20178;-77
2022/07/17 01:26:57;;;;;;;4.65;3.10;;;;;;;21.95;64.20;95266.34;5051109;28;20574;-77
2022/07/17 01:29:24;;;;;;;11.52;3.30;;;;;;;21.95;64.44;95274.38;5038632;28;20218;-77
2022/07/17 01:31:49;;;;;;;6.88;3.45;;;;;;;21.94;64.08;95283.50;5031370;28;20172;-77
2022/07/17 01:34:15;;;;;;;6.88;3.20;;;;;;;21.90;63.79;95282.41;5039598;28;20175;-77
2022/07/17 01:36:41;;;;;;;6.50;3.90;;;;;;;21.92;64.37;95274.91;5041813;28;20553;-77
2022/07/17 01:39:07;;;;;;;3.53;3.00;;;;;;;21.79;64.48;95265.53;5050770;28;20727;-77
2022/07/17 01:41:33;;;;;;;4.68;3.63;;;;;;;21.92;64.70;95282.97;5024262;28;20175;-77
2022/07/17 01:43:58;;;;;;;5.53;3.60;;;;;;;21.89;64.19;95282.69;5051258;28;20173;-76
2022/07/17 01:46:24;;;;;;;4.85;3.42;;;;;;;21.80;64.28;95266.34;5050900;28;20277;-77
2022/07/17 01:48:50;;;;;;;3.53;2.65;;;;;;;21.84;64.74;95270.09;5042279;28;20178;-77
2022/07/17 01:51:15;;;;;;;10.38;3.90;;;;;;;21.83;66.27;95276.53;5051212;28;20175;-77
2022/07/17 01:53:41;;;;;;;5.60;3.13;;;;;;;21.78;66.93;95277.38;5033439;28;20175;-77
2022/07/17 01:56:06;;;;;;;7.78;3.40;;;;;;;21.67;67.48;95267.72;5031441;28;20225;-77
2022/07/17 01:58:33;;;;;;;12.20;2.97;;;;;;;21.61;69.21;95284.09;5044685;28;20534;-77
2022/07/17 02:00:58;;;;;;;9.52;2.85;;;;;;;21.55;71.01;95285.13;5050986;28;20163;-77
2022/07/17 02:03:24;;;;;;;13.38;3.30;;;;;;;21.46;71.19;95288.34;5050677;28;20190;-77
2022/07/17 02:05:49;;;;;;;16.98;3.47;;;;;;;21.42;71.37;95281.13;5050719;28;20226;-77
2022/07/17 02:08:15;;;;;;;13.45;2.95;;;;;;;21.37;71.49;95281.91;5037160;28;20172;-77
2022/07/17 02:10:40;;;;;;;3.67;2.53;;;;;;;21.32;71.11;95281.94;5031016;28;20190;-77
2022/07/17 02:13:06;;;;;;;10.15;2.85;;;;;;;21.28;70.59;95280.03;5049013;28;20643;-77
2022/07/17 02:15:31;;;;;;;4.78;2.90;;;;;;;21.26;70.57;95282.19;5048154;28;20237;-77
2022/07/17 02:17:57;;;;;;;5.97;2.72;;;;;;;21.20;70.85;95277.88;5045072;28;20175;-77
2022/07/17 02:20:23;;;;;;;6.85;2.72;;;;;;;21.23;71.25;95286.22;5050736;28;20181;-77
2022/07/17 02:22:48;;;;;;;4.47;3.25;;;;;;;21.22;70.04;95286.47;5050520;28;20183;-77
2022/07/17 02:25:14;;;;;;;5.00;3.30;;;;;;;21.18;70.13;95280.88;5048541;28;20233;-77
2022/07/17 02:27:41;;;;;;;5.40;3.92;;;;;;;21.15;69.51;95277.88;5048805;28;20224;-77
2022/07/17 02:30:17;;;;;;;3.63;2.92;;;;;;;21.09;66.84;95282.41;5054487;28;20229;-77
2022/07/17 02:32:43;;;;;;;4.10;2.50;;;;;;;20.96;67.88;95266.84;5026202;28;20271;-77
2022/07/17 02:35:10;;;;;;;8.30;2.83;;;;;;;21.09;69.48;95277.06;5039315;28;20257;-77
2022/07/17 02:37:36;;;;;;;12.38;7.68;;;;;;;21.12;68.97;95281.88;5046841;28;20558;-77
2022/07/17 02:40:04;;;;;;;6.18;3.72;;;;;;;21.10;69.25;95292.84;5052923;28;20253;-77
2022/07/17 02:42:30;;;;;;;4.93;2.78;;;;;;;21.08;69.87;95288.84;5054366;28;20171;-77
2022/07/17 02:44:57;;;;;;;7.28;5.30;;;;;;;21.04;70.40;95285.88;5054227;28;20675;-77
2022/07/17 02:47:31;;;;;;;5.28;2.83;;;;;;;21.03;70.71;95288.81;5054117;28;20215;-77
2022/07/17 02:49:57;;;;;;;18.60;8.15;;;;;;;21.00;70.02;95292.03;5034871;28;20183;-77
2022/07/17 02:52:23;;;;;;;4.65;2.83;;;;;;;20.98;69.74;95294.19;5033856;28;20179;-77
2022/07/17 02:54:49;;;;;;;3.35;2.65;;;;;;;20.95;69.99;95298.19;5041161;28;20175;-76
2022/07/17 02:57:16;;;;;;;11.73;4.40;;;;;;;20.76;69.83;95280.22;5053482;28;20261;-77
2022/07/17 02:59:41;;;;;;;11.65;6.43;;;;;;;20.86;69.25;95298.97;5053328;28;20163;-76
2022/07/17 03:02:07;;;;;;;8.18;4.50;;;;;;;20.84;70.38;95301.13;5053540;28;20170;-77
2022/07/17 03:04:32;;;;;;;14.82;8.00;;;;;;;20.83;70.56;95305.66;5053170;28;20656;-77
2022/07/17 03:06:58;;;;;;;9.73;5.38;;;;;;;20.76;70.16;95302.41;5053162;28;20700;-77
2022/07/17 03:09:23;;;;;;;8.10;4.85;;;;;;;20.76;70.68;95310.44;5053597;28;20224;-77
2022/07/17 03:11:49;;;;;;;14.95;8.13;;;;;;;20.67;70.76;95302.09;5038730;28;20240;-77
2022/07/17 03:14:14;;;;;;;9.85;4.63;;;;;;;20.73;70.64;95310.97;5050208;28;20174;-77
2022/07/17 03:16:40;;;;;;;3.95;2.95;;;;;;;20.69;70.91;95315.22;5053229;28;20709;-77
2022/07/17 03:19:05;;;;;;;10.63;5.90;;;;;;;20.75;70.78;95324.91;5053361;28;20179;-76
2022/07/17 03:21:31;;;;;;;10.18;6.13;;;;;;;20.55;71.30;95282.81;5053344;28;20711;-77
2022/07/17 03:23:56;;;;;;;7.18;3.47;;;;;;;20.72;71.22;95317.41;5027120;28;20171;-77
2022/07/17 03:26:21;;;;;;;8.93;4.18;;;;;;;20.62;71.08;95304.78;5034526;28;20187;-77
2022/07/17 03:28:47;;;;;;;9.43;4.50;;;;;;;20.58;70.91;95303.69;5040071;28;20179;-77
2022/07/17 03:31:12;;;;;;;11.23;6.75;;;;;;;20.69;70.86;95323.25;5033111;28;20262;-77
2022/07/17 03:33:38;;;;;;;7.72;5.55;;;;;;;20.55;71.30;95303.41;5032846;28;20653;-76
2022/07/17 03:36:04;;;;;;;7.78;4.68;;;;;;;20.74;68.79;95339.34;5043084;28;20250;-76
2022/07/17 03:38:30;;;;;;;13.77;8.23;;;;;;;20.82;70.24;95346.88;5052707;28;20193;-76
2022/07/17 03:40:55;;;;;;;5.15;3.50;;;;;;;20.92;69.24;95343.44;5043572;28;20167;-75
2022/07/17 03:43:21;;;;;;;11.73;4.72;;;;;;;21.00;68.53;95345.59;5043624;28;20783;-75
2022/07/17 03:45:46;;;;;;;9.27;5.40;;;;;;;21.05;67.56;95345.59;5032072;28;20171;-74
2022/07/17 03:48:11;;;;;;;9.38;6.18;;;;;;;21.12;68.19;95343.47;5032034;28;20203;-74
2022/07/17 03:50:37;;;;;;;3.88;2.72;;;;;;;21.14;66.81;95344.00;5031963;28;20179;-74
2022/07/17 03:53:02;;;;;;;5.63;3.67;;;;;;;21.18;66.58;95345.13;5032090;28;20167;-74
2022/07/17 03:55:28;;;;;;;3.40;2.53;;;;;;;21.22;67.16;95350.75;5032216;28;20186;-75
2022/07/17 03:57:53;;;;;;;12.85;4.63;;;;;;;21.29;67.84;95356.66;5031988;28;20294;-74
2022/07/17 04:00:19;;;;;;;4.65;3.65;;;;;;;21.41;67.95;95362.56;5032016;28;20191;-75
2022/07/17 04:02:44;;;;;;;5.88;3.33;;;;;;;21.34;66.10;95340.59;5031813;28;20184;-75
2022/07/17 04:05:11;;;;;;;6.43;4.60;;;;;;;21.59;65.43;95347.84;5031850;28;20184;-74
2022/07/17 04:07:40;;;;;;;4.15;3.20;;;;;;;21.93;65.94;95373.06;5031488;28;20247;-74
2022/07/17 04:10:08;;;;;;;6.68;2.75;;;;;;;22.12;63.88;95363.41;5031681;28;20180;-75
2022/07/17 04:12:34;;;;;;;10.38;2.90;;;;;;;22.25;62.29;95369.28;5050283;28;20194;-74
2022/07/17 04:14:59;;;;;;;6.50;2.90;;;;;;;22.22;62.34;95334.97;5051507;28;20167;-74
2022/07/17 04:17:25;;;;;;;3.35;2.70;;;;;;;22.42;62.98;95342.94;5051745;28;20193;-75
2022/07/17 04:19:51;;;;;;;9.88;2.72;;;;;;;22.79;61.76;95378.28;5051643;28;20198;-75
2022/07/17 04:22:17;;;;;;;6.15;2.50;;;;;;;22.98;62.35;95383.06;5051541;28;20641;-75
2022/07/17 04:24:42;;;;;;;9.80;2.72;;;;;;;23.15;61.58;95381.63;5051518;28;20277;-75
2022/07/17 04:27:08;;;;;;;5.07;2.60;;;;;;;23.15;57.29;95365.50;5051425;28;20206;-75
2022/07/17 04:29:34;;;;;;;8.65;2.75;;;;;;;23.31;58.06;95385.03;5051462;28;20178;-75
2022/07/17 04:31:59;;;;;;;5.18;2.45;;;;;;;23.39;59.92;95381.75;5051415;28;20750;-75
2022/07/17 04:34:25;;;;;;;6.72;2.85;;;;;;;23.51;59.29;95387.66;5050948;28;20175;-75
2022/07/17 04:36:50;;;;;;;5.05;2.50;;;;;;;23.51;55.81;95386.84;5042332;28;20169;-75
2022/07/17 04:39:16;;;;;;;4.72;3.03;;;;;;;23.40;55.29;95394.13;5051009;28;20663;-75
2022/07/17 04:41:41;;;;;;;5.57;2.80;;;;;;;23.62;53.85;95394.53;5050769;28;20188;-75
2022/07/17 04:44:07;;;;;;;4.60;2.55;;;;;;;23.93;51.98;95394.31;5042336;28;20294;-74
2022/07/17 04:46:32;;;;;;;4.30;2.58;;;;;;;24.13;51.13;95399.53;5042262;28;20188;-75
2022/07/17 04:48:57;;;;;;;9.65;4.05;;;;;;;24.50;52.17;95398.94;5030424;28;20259;-74
2022/07/17 04:51:24;;;;;;;8.23;4.15;;;;;;;24.88;50.83;95399.88;5030801;28;20172;-75
2022/07/17 04:53:49;;;;;;;7.03;4.63;;;;;;;25.26;52.74;95403.47;5041534;28;20178;-75
2022/07/17 04:56:15;;;;;;;3.72;3.20;;;;;;;25.67;49.99;95405.66;5050711;28;20699;-75
2022/07/17 04:58:41;;;;;;;6.45;2.90;;;;;;;26.01;47.97;95408.09;5050754;28;20233;-75
2022/07/17 05:01:06;;;;;;;7.47;3.72;;;;;;;26.20;47.39;95425.88;5050483;28;20210;-75
2022/07/17 05:03:32;;;;;;;3.78;2.47;;;;;;;26.35;48.62;95410.53;5050390;28;20179;-75
2022/07/17 05:05:57;;;;;;;7.63;5.78;;;;;;;26.85;47.54;95425.81;5050356;28;20721;-75
2022/07/17 05:08:23;;;;;;;4.75;2.75;;;;;;;27.27;45.25;95421.25;5050378;28;20237;-75
2022/07/17 05:10:48;;;;;;;4.13;3.72;;;;;;;27.53;43.71;95421.50;5050395;28;20171;-75
2022/07/17 05:13:13;;;;;;;7.07;2.58;;;;;;;27.75;43.09;95430.53;5040421;28;20175;-76
2022/07/17 05:15:39;;;;;;;7.68;2.53;;;;;;;28.02;44.00;95420.72;5044609;28;20241;-76
2022/07/17 05:18:04;;;;;;;10.63;3.92;;;;;;;28.32;41.53;95413.75;5051616;28;20179;-76
2022/07/17 05:20:30;;;;;;;2.47;2.20;;;;;;;28.80;41.72;95392.22;5031817;28;20195;-76
2022/07/17 05:22:56;;;;;;;4.63;2.30;;;;;;;29.44;41.00;95422.44;5037614;28;20250;-76
2022/07/17 05:25:22;;;;;;;1999.90;999.90;;;;;;;29.83;37.79;95424.25;5051073;28;20167;-76
2022/07/17 05:27:47;;;;;;;633.20;564.88;;;;;;;30.17;38.23;95423.47;5042584;28;20210;-76
2022/07/17 05:30:13;;;;;;;17.80;16.50;;;;;;;30.78;36.45;95432.34;5040407;28;20178;-77
2022/07/17 05:32:38;;;;;;;2.53;1.98;;;;;;;31.09;33.73;95433.69;5041781;28;20170;-77
2022/07/17 05:35:04;;;;;;;5.75;1.80;;;;;;;31.09;32.70;95433.69;5042711;28;20561;-77
2022/07/17 05:37:30;;;;;;;3.13;1.77;;;;;;;31.34;32.31;95423.81;5029355;28;20582;-76
2022/07/17 05:39:56;;;;;;;5.55;2.08;;;;;;;31.65;32.50;95431.66;5045022;28;20254;-77
2022/07/17 05:42:21;;;;;;;2.00;1.80;;;;;;;31.27;30.90;95423.53;5038324;28;20179;-77
2022/07/17 05:44:47;;;;;;;2.88;1.92;;;;;;;31.21;30.79;95424.03;5049630;28;20167;-77
2022/07/17 05:47:12;;;;;;;5.47;2.10;;;;;;;31.26;31.47;95438.25;5033368;28;20196;-77
2022/07/17 05:49:38;;;;;;;6.95;2.45;;;;;;;30.45;31.61;95441.00;5030957;28;20651;-77
2022/07/17 05:52:03;;;;;;;3.60;2.33;;;;;;;30.32;32.63;95434.66;5037836;28;20171;-76
2022/07/17 05:54:29;;;;;;;7.85;2.30;;;;;;;30.84;32.14;95407.38;5042197;28;20172;-77
2022/07/17 05:56:54;;;;;;;3.92;2.28;;;;;;;31.24;31.00;95437.78;5037925;28;20235;-76
2022/07/17 05:59:20;;;;;;;3.67;1.95;;;;;;;31.50;29.76;95437.63;5043673;28;20648;-77
2022/07/17 06:01:45;;;;;;;4.50;2.47;;;;;;;31.45;29.65;95435.13;5043650;28;20234;-77
2022/07/17 06:04:11;;;;;;;3.20;2.20;;;;;;;31.66;31.39;95437.88;5043165;28;20178;-77
2022/07/17 06:06:36;;;;;;;3.63;2.00;;;;;;;31.38;30.17;95430.19;5046318;28;20219;-77
2022/07/17 06:09:02;;;;;;;5.60;2.28;;;;;;;30.84;30.47;95442.72;5036190;28;20617;-77
2022/07/17 06:11:27;;;;;;;3.22;1.92;;;;;;;30.00;32.00;95435.16;5041115;28;20170;-76
2022/07/17 06:13:53;;;;;;;2.47;1.90;;;;;;;29.81;33.19;95432.72;5039769;28;20591;-76
2022/07/17 06:16:18;;;;;;;7.40;2.40;;;;;;;29.51;33.89;95445.28;5041629;28;20171;-77
2022/07/17 06:18:44;;;;;;;3.58;2.22;;;;;;;29.72;33.39;95439.25;5039332;28;20168;-77
2022/07/17 06:21:09;;;;;;;5.10;2.35;;;;;;;30.06;32.65;95439.28;5043436;28;20206;-77
2022/07/17 06:23:34;;;;;;;4.10;2.22;;;;;;;30.31;31.87;95437.69;5045024;28;20237;-77
2022/07/17 06:26:00;;;;;;;3.75;2.03;;;;;;;30.49;32.20;95425.66;5045333;28;20626;-77
2022/07/17 06:28:25;;;;;;;2.88;2.10;;;;;;;30.74;31.75;95448.50;5048313;28;20625;-77
2022/07/17 06:30:51;;;;;;;3.38;2.22;;;;;;;30.91;32.80;95445.72;5037522;28;20180;-77
2022/07/17 06:33:16;;;;;;;2.65;2.25;;;;;;;31.27;32.41;95449.94;5035685;28;20167;-77
2022/07/17 06:35:42;;;;;;;3.72;2.30;;;;;;;31.68;31.80;95455.50;5034751;28;20222;-77
2022/07/17 06:38:08;;;;;;;2.75;2.15;;;;;;;31.22;30.97;95414.75;5049332;28;20677;-77
2022/07/17 06:40:33;;;;;;;2.30;2.10;;;;;;;31.52;33.17;95445.47;5045941;28;20576;-78
2022/07/17 06:42:59;;;;;;;6.38;2.42;;;;;;;31.63;30.36;95441.28;5027149;28;20183;-77
2022/07/17 06:45:24;;;;;;;3.50;1.85;;;;;;;31.75;29.84;95444.06;5036838;28;20176;-78
2022/07/17 06:47:50;;;;;;;5.13;2.40;;;;;;;31.28;30.72;95421.59;5036749;28;20199;-77
2022/07/17 06:50:15;;;;;;;2.60;2.00;;;;;;;31.42;30.80;95441.22;5036865;28;20273;-78
2022/07/17 06:52:40;;;;;;;4.57;2.00;;;;;;;31.31;30.77;95421.72;5045844;28;20588;-78
2022/07/17 06:55:06;;;;;;;5.97;2.42;;;;;;;31.34;31.15;95452.94;5024407;28;20577;-78
2022/07/17 06:57:31;;;;;;;5.97;2.10;;;;;;;31.15;31.18;95434.28;5044103;28;20167;-77
2022/07/17 06:59:57;;;;;;;3.13;2.30;;;;;;;31.36;30.44;95454.22;5049353;28;20175;-77
2022/07/17 07:02:22;;;;;;;1.92;1.83;;;;;;;31.48;31.25;95456.25;5024323;28;20636;-77
2022/07/17 07:04:48;;;;;;;5.15;2.80;;;;;;;31.37;30.69;95436.78;5048665;28;20241;-77
2022/07/17 07:07:13;;;;;;;9.70;2.33;;;;;;;31.43;32.05;95450.97;5030868;28;20223;-77
2022/07/17 07:09:38;;;;;;;2.80;2.25;;;;;;;31.84;31.81;95455.72;5047705;28;20262;-76
2022/07/17 07:12:04;;;;;;;5.07;2.47;;;;;;;32.00;30.91;95456.72;5047441;28;20175;-76
2022/07/17 07:14:29;;;;;;;9.50;2.30;;;;;;;32.24;31.06;95456.09;5044049;28;20182;-76
2022/07/17 07:16:55;;;;;;;2.55;2.35;;;;;;;32.44;30.82;95454.47;5042687;28;20606;-76
2022/07/17 07:19:20;;;;;;;2.58;2.20;;;;;;;32.52;30.56;95454.38;5044665;28;20171;-76
2022/07/17 07:21:46;;;;;;;3.47;2.05;;;;;;;32.57;31.68;95459.63;5032902;28;20545;-76
2022/07/17 07:24:11;;;;;;;3.80;2.78;;;;;;;32.57;30.23;95448.72;5052624;28;20652;-76
2022/07/17 07:26:37;;;;;;;7.07;2.28;;;;;;;32.48;29.31;95458.91;5043753;28;20201;-76
2022/07/17 07:29:02;;;;;;;3.92;2.28;;;;;;;32.56;29.44;95465.41;5047179;28;20250;-76
2022/07/17 07:31:28;;;;;;;9.98;2.40;;;;;;;32.93;30.87;95471.81;5035144;28;20178;-76
2022/07/17 07:33:53;;;;;;;2.35;2.05;;;;;;;33.14;27.71;95463.53;5044632;28;20218;-76
2022/07/17 07:36:18;;;;;;;3.47;2.17;;;;;;;32.88;28.08;95455.66;5044071;28;20175;-76
2022/07/17 07:38:45;;;;;;;2.88;2.00;;;;;;;32.54;28.12;95473.13;5040777;28;20180;-76
2022/07/17 07:41:10;;;;;;;4.05;2.30;;;;;;;32.09;29.34;95476.53;5032557;28;20187;-76
2022/07/17 07:43:36;;;;;;;3.15;2.05;;;;;;;31.28;30.11;95468.66;5032794;28;20260;-76
2022/07/17 07:46:02;;;;;;;4.93;2.50;;;;;;;31.11;32.15;95463.31;5033415;28;20179;-76
2022/07/17 07:48:28;;;;;;;3.97;2.28;;;;;;;31.39;33.21;95460.94;5052410;28;20615;-76
2022/07/17 07:50:53;;;;;;;5.70;2.40;;;;;;;32.04;30.53;95462.31;5052372;28;20170;-76
2022/07/17 07:53:19;;;;;;;2.35;2.15;;;;;;;32.13;30.84;95452.94;5052524;28;20218;-76
2022/07/17 07:55:44;;;;;;;4.38;2.00;;;;;;;32.16;31.46;95446.88;5052765;28;20171;-76
2022/07/17 07:58:12;;;;;;;3.97;2.00;;;;;;;32.34;30.19;95466.59;5052505;28;20182;-76
2022/07/17 08:00:43;;;;;;;3.05;1.85;;;;;;;32.57;31.40;95465.09;5052361;28;20533;-75
2022/07/17 08:03:09;;;;;;;3.22;1.90;;;;;;;32.97;30.46;95468.06;5052757;28;20171;-75
2022/07/17 08:05:34;;;;;;;2.30;2.10;;;;;;;33.43;29.42;95468.03;5051988;28;20227;-76
2022/07/17 08:08:00;;;;;;;2.30;2.10;;;;;;;33.22;28.65;95468.13;5052293;28;20286;-75
2022/07/17 08:10:26;;;;;;;2.30;2.00;;;;;;;32.87;29.89;95437.69;5052499;28;20159;-75
2022/07/17 08:12:52;;;;;;;2.40;2.10;;;;;;;33.33;30.60;95467.34;5052190;28;20637;-74
2022/07/17 08:15:20;;;;;;;3.05;2.20;;;;;;;33.33;29.17;95464.63;5051864;28;20167;-75
2022/07/17 08:17:47;;;;;;;3.83;2.50;;;;;;;33.20;30.16;95473.91;5052078;28;20171;-75
2022/07/17 08:20:13;;;;;;;2.92;2.10;;;;;;;33.42;28.79;95467.22;5051906;28;20194;-76
2022/07/17 08:22:39;;;;;;;2.17;1.92;;;;;;;33.38;27.94;95471.00;5033388;28;20632;-76
2022/07/17 08:25:05;;;;;;;2.38;2.05;;;;;;;31.83;29.44;95456.84;5051910;28;20175;-77
2022/07/17 08:27:41;;;;;;;2.80;2.28;;;;;;;31.08;31.84;95466.66;5023592;28;20207;-77
2022/07/17 08:30:09;;;;;;;3.13;2.83;;;;;;;30.72;32.82;95464.34;5017799;28;20176;-76
2022/07/17 08:32:36;;;;;;;4.43;2.55;;;;;;;30.44;32.56;95458.47;5012162;28;20244;-75
2022/07/17 08:35:02;;;;;;;2.58;2.20;;;;;;;31.05;34.26;95470.00;5012780;28;20204;-77
2022/07/17 08:37:28;;;;;;;4.85;3.25;;;;;;;31.58;31.88;95455.06;5029398;28;20257;-76
2022/07/17 08:39:54;;;;;;;4.05;2.80;;;;;;;31.95;32.42;95469.75;5031465;28;20175;-76
2022/07/17 08:42:20;;;;;;;4.97;3.10;;;;;;;32.48;30.39;95467.09;5031783;28;20180;-76
2022/07/17 08:44:46;;;;;;;3.05;2.13;;;;;;;32.50;29.69;95462.13;5031569;28;20528;-76
2022/07/17 08:47:13;;;;;;;2.25;2.03;;;;;;;32.88;29.56;95464.63;5028464;28;20566;-75
2022/07/17 08:49:44;;;;;;;3.40;2.20;;;;;;;32.85;30.08;95459.06;5020737;28;20175;-76
2022/07/17 08:52:11;;;;;;;6.18;2.90;;;;;;;32.94;29.62;95452.38;5010517;28;20180;-76
2022/07/17 08:54:37;;;;;;;6.82;4.05;;;;;;;32.97;29.00;95461.81;5021337;28;20681;-75
2022/07/17 08:57:03;;;;;;;3.55;2.10;;;;;;;32.93;28.66;95450.78;5017504;28;20192;-75
2022/07/17 08:59:29;;;;;;;4.45;2.22;;;;;;;32.63;28.85;95445.78;5031559;28;20223;-77
2022/07/17 09:01:54;;;;;;;3.30;2.70;;;;;;;32.47;29.45;95432.78;5030870;28;20187;-77
2022/07/17 09:04:20;;;;;;;8.52;4.45;;;;;;;32.41;30.83;95445.03;5027836;28;20180;-75
2022/07/17 09:06:45;;;;;;;2.63;2.20;;;;;;;32.56;31.51;95438.94;5024009;28;20220;-77
2022/07/17 09:09:13;;;;;;;4.93;3.15;;;;;;;32.93;30.81;95447.25;5010157;28;20188;-76
2022/07/17 09:11:50;;;;;;;3.30;2.20;;;;;;;33.01;30.71;95442.84;5025569;28;20186;-76
2022/07/17 09:14:17;;;;;;;2.47;2.28;;;;;;;33.20;30.52;95446.63;5022540;28;20583;-76
2022/07/17 09:16:57;;;;;;;2.75;2.20;;;;;;;33.23;30.01;95454.13;5022988;28;20171;-76
2022/07/17 09:19:36;;;;;;;2.20;2.00;;;;;;;32.94;30.50;95444.19;5017236;28;20222;-76
2022/07/17 09:22:13;;;;;;;3.63;2.35;;;;;;;33.09;30.33;95447.38;5022468;28;20222;-77
2022/07/17 09:24:48;;;;;;;2.30;1.98;;;;;;;33.18;28.43;95445.34;5021015;28;20210;-77
2022/07/17 09:27:27;;;;;;;3.08;2.17;;;;;;;32.71;29.58;95417.63;5024147;28;20672;-76
2022/07/17 09:30:00;;;;;;;5.25;2.40;;;;;;;32.56;29.05;95440.88;5020864;28;20262;-77
2022/07/17 09:32:29;;;;;;;8.30;2.78;;;;;;;32.19;30.00;95442.66;5026096;28;20683;-77
2022/07/17 09:34:57;;;;;;;5.07;2.10;;;;;;;32.27;31.08;95447.22;5024639;28;20234;-80
2022/07/17 09:37:23;;;;;;;3.10;2.15;;;;;;;31.97;30.69;95432.88;5023567;28;20650;-81
2022/07/17 09:39:49;;;;;;;3.17;2.25;;;;;;;31.78;31.43;95416.19;5025782;28;20765;-78
2022/07/17 09:42:41;;;;;;;2.88;2.13;;;;;;;31.77;31.13;95442.63;5007300;28;20183;-77
2022/07/17 09:45:09;;;;;;;4.57;2.22;;;;;;;31.32;31.66;95442.38;5017032;28;20194;-78
2022/07/17 09:47:39;;;;;;;2.30;2.10;;;;;;;31.26;30.79;95437.47;5025990;28;20188;-77
2022/07/17 09:50:07;;;;;;;4.07;2.33;;;;;;;31.38;29.39;95443.81;5026410;28;20186;-78
2022/07/17 09:52:36;;;;;;;5.38;2.28;;;;;;;31.24;28.27;95436.97;5020973;28;20537;-77
2022/07/17 09:55:02;;;;;;;2.08;1.88;;;;;;;31.00;30.49;95442.97;5024822;28;20184;-77
2022/07/17 09:57:33;;;;;;;2.20;2.00;;;;;;;30.78;29.07;95435.06;5016836;28;20191;-78
2022/07/17 10:00:03;;;;;;;4.20;2.33;;;;;;;30.62;32.13;95413.81;5024925;28;20178;-78
2022/07/17 10:02:28;;;;;;;4.00;2.10;;;;;;;30.96;30.69;95445.53;5021329;28;20207;-78
2022/07/17 10:04:54;;;;;;;5.88;2.65;;;;;;;31.11;30.72;95428.72;5023500;28;20187;-77
2022/07/17 10:07:20;;;;;;;4.10;2.10;;;;;;;31.44;30.59;95430.78;5019743;28;20245;-77
2022/07/17 10:09:46;;;;;;;2.22;2.00;;;;;;;31.71;29.94;95446.69;5021248;28;20168;-78
2022/07/17 10:12:13;;;;;;;1.90;1.80;;;;;;;31.74;30.12;95442.50;5022430;28;20238;-79
2022/07/17 10:14:41;;;;;;;4.38;2.40;;;;;;;31.58;29.85;95439.50;5028777;28;20174;-77
2022/07/17 10:17:11;;;;;;;6.50;2.00;;;;;;;31.37;29.70;95425.88;5023058;28;20198;-78
2022/07/17 10:19:46;;;;;;;4.70;2.28;;;;;;;31.21;30.34;95434.94;5022956;28;20173;-78
2022/07/17 10:22:11;;;;;;;4.22;2.17;;;;;;;30.96;30.55;95433.88;5027026;28;20625;-77
2022/07/17 10:24:50;;;;;;;4.40;1.83;;;;;;;30.83;33.22;95424.81;5025060;28;20205;-77
2022/07/17 10:27:24;;;;;;;5.35;2.20;;;;;;;31.07;32.32;95430.50;5022113;28;20186;-77
2022/07/17 10:30:08;;;;;;;1.98;1.80;;;;;;;31.04;30.41;95431.13;5021835;28;20679;-77
2022/07/17 10:32:37;;;;;;;7.18;2.30;;;;;;;30.83;31.53;95424.81;5026625;28;20176;-77
2022/07/17 10:35:10;;;;;;;5.35;2.60;;;;;;;30.82;32.33;95414.25;5022552;28;20290;-79
2022/07/17 10:37:36;;;;;;;3.72;2.17;;;;;;;30.91;32.01;95423.97;5022897;28;20172;-78
2022/07/17 10:40:22;;;;;;;2.33;2.13;;;;;;;30.77;32.04;95419.88;5026140;28;20177;-79
2022/07/17 10:42:58;;;;;;;3.53;2.30;;;;;;;30.45;32.48;95408.38;5024611;28;20183;-78
2022/07/17 10:45:26;;;;;;;4.65;2.50;;;;;;;30.55;34.12;95407.28;5024219;28;20759;-78
2022/07/17 10:48:17;;;;;;;3.58;1.77;;;;;;;30.77;33.73;95415.22;5031427;28;20676;-78
2022/07/17 10:50:46;;;;;;;2.80;1.90;;;;;;;30.84;31.09;95409.28;5029574;28;20188;-77
2022/07/17 10:53:31;;;;;;;2.88;1.85;;;;;;;30.99;30.58;95414.97;5035618;28;20564;-77
2022/07/17 10:56:03;;;;;;;2.70;2.00;;;;;;;30.95;30.48;95415.97;5035904;28;20171;-77
2022/07/17 10:58:34;;;;;;;2.88;2.10;;;;;;;30.93;30.10;95407.34;5033305;28;20253;-77
2022/07/17 11:01:12;;;;;;;3.30;2.55;;;;;;;30.98;31.65;95412.56;5009187;28;20187;-77
2022/07/17 11:03:43;;;;;;;3.72;2.15;;;;;;;31.15;31.14;95403.56;5031873;28;20168;-77
2022/07/17 11:06:24;;;;;;;3.63;2.03;;;;;;;31.20;30.22;95389.78;5024319;28;20228;-79
2022/07/17 11:08:59;;;;;;;3.40;1.90;;;;;;;31.31;30.71;95399.19;5032346;28;20213;-78
2022/07/17 11:11:40;;;;;;;5.10;2.50;;;;;;;31.35;31.17;95400.91;5030848;28;20179;-77
2022/07/17 11:14:11;;;;;;;2.88;2.00;;;;;;;31.34;31.47;95390.34;5033753;28;20167;-78
2022/07/17 11:16:37;;;;;;;2.38;1.98;;;;;;;31.32;31.93;95379.78;5027997;28;20263;-77
2022/07/17 11:19:03;;;;;;;3.00;2.30;;;;;;;31.40;32.17;95369.97;5030728;28;20184;-78
2022/07/17 11:21:29;;;;;;;4.45;1.90;;;;;;;31.69;32.16;95389.00;5029205;28;20210;-77
2022/07/17 11:23:57;;;;;;;3.03;2.03;;;;;;;31.82;30.18;95389.91;5042346;28;20198;-78
2022/07/17 11:26:23;;;;;;;2.30;1.90;;;;;;;31.88;32.51;95387.75;5033283;28;20176;-78
2022/07/17 11:28:51;;;;;;;2.38;2.17;;;;;;;31.89;31.15;95383.91;5024912;28;20187;-76
2022/07/17 11:31:24;;;;;;;2.25;1.92;;;;;;;31.95;30.46;95379.84;5025839;28;20203;-77